Aérodrome :
LOGIN :

S'inscrire | Disclaimer

   EN    FR    IT 

 










Légende :    VFR   VFR Marginal   IFR   IFR Intensif   IFR Très Intensif
Visi : 
Plafond : 
>= 8 km
>= 3000ft
5 à 8 km
1000 à 3000 ft
1500m à 5 km
500 à 1000 ft
800 à 1500m
200 à 500 ft
< 800m
< 200 ft
Symboles :   Orages  Brouillard  Fortes neiges  Fortes précipitations  Vent > 20 kt
SIGMETs :   Divers  Orages  Givrage  Turbulence  Onde Orograph.  Cendres Volcan.







- Altitude de l'aérodrome : 1079 ft


ETIK - Illesheim Air Base

DERNIER METAR :
  • 152356Z AUTO 00000KT 9999 CLR 12/09 A3015 RMK AO2 SLP205 T01220092 10232 20122 50000 $

METARs EXPIRÉS :
  • 152256Z AUTO 00000KT 9999 CLR 13/09 A3015 RMK AO2 SLP203 T01280092 402520128 $
  • 152156Z AUTO 00000KT 9999 CLR 14/10 A3015 RMK AO2 SLP203 T01400096 $

TAF TAF ETIK
Valide du 15 à 21h jusqu'au 17 à 03h UTC


152105Z 1521/1703 VRB06KT 9999 SCT040 QNH2997INS
BECMG 1611/1612 16009KT 9999 BKN060 QNH2992INS TX29/1615Z TN13/1604Z
Pas de NOTAMs connus pour ce terrain.



MET'MAP, la Météo Aéronautique d'un coup d'oeil ! - Copyright ORBIFLY Décembre 2007 - Disclaimer

ORBIFLY MET'MAP TEAM :

Programmation & Développement : Alexandra Zaïnal
Conception & Développement : Baudouin d'Aumeries
Co-Programmation & Développement : Marc-Olivier Méhu
Soutien technique & logistique : Manuel Goepfert

Contact : metmap@orbifly.com




SOURCES & CREDITS :

   NOAA